Time;durP1;ratioP1;P1;durP2;ratioP2;P2;SDS_P1;SDS_P2;PMS_P1;PMS_P2;Temp;Humidity;BMP_temperature;BMP_pressure;BME280_temperature;BME280_humidity;BME280_pressure;Samples;Min_cycle;Max_cycle;Signal;HPM_P1;HPM_P2
2024/04/20 00:00:38;;;;;;;2.57;0.70;;;;;17.80;100255.00;;;;2231678;26;20304;-57
2024/04/20 00:01:39;;;;;;;1.83;0.50;;;;;17.80;100262.00;;;;2209106;26;20362;-57
2024/04/20 00:02:39;;;;;;;2.13;0.60;;;;;17.80;100248.00;;;;2228423;26;20338;-57
2024/04/20 00:03:39;;;;;;;1.77;0.50;;;;;17.80;100259.00;;;;2228966;26;20263;-57
2024/04/20 00:04:40;;;;;;;1.53;0.50;;;;;17.80;100257.00;;;;2224063;26;20370;-58
2024/04/20 00:05:40;;;;;;;2.53;0.63;;;;;17.80;100253.00;;;;2216006;26;20573;-58
2024/04/20 00:06:40;;;;;;;2.03;0.63;;;;;17.80;100260.00;;;;2213854;26;20625;-57
2024/04/20 00:07:41;;;;;;;1.80;0.70;;;;;17.80;100256.00;;;;2217009;26;20253;-57
2024/04/20 00:08:42;;;;;;;1.83;0.60;;;;;17.80;100261.00;;;;2217299;26;20358;-58
2024/04/20 00:09:42;;;;;;;2.45;0.75;;;;;17.80;100267.00;;;;2203063;26;20358;-57
2024/04/20 00:10:43;;;;;;;1.40;0.40;;;;;17.80;100259.00;;;;2209279;26;20259;-57
2024/04/20 00:11:43;;;;;;;2.70;0.70;;;;;17.80;100264.00;;;;2217667;26;20291;-57
2024/04/20 00:12:43;;;;;;;1.60;0.60;;;;;17.80;100261.00;;;;2221138;26;20459;-57
2024/04/20 00:13:46;;;;;;;2.47;0.80;;;;;17.80;100261.00;;;;2220625;26;20353;-57
2024/04/20 00:14:46;;;;;;;2.47;0.80;;;;;17.80;100268.00;;;;2232827;26;20302;-57
2024/04/20 00:15:46;;;;;;;1.60;0.50;;;;;17.80;100272.00;;;;2222591;26;20259;-58
2024/04/20 00:16:47;;;;;;;2.00;0.70;;;;;17.80;100271.00;;;;2207389;26;20255;-58
2024/04/20 00:17:47;;;;;;;1.67;0.47;;;;;17.80;100278.00;;;;2228722;26;20262;-57
2024/04/20 00:18:47;;;;;;;2.07;0.50;;;;;17.80;100279.00;;;;2220665;26;20247;-57
2024/04/20 00:19:48;;;;;;;1.70;0.50;;;;;17.80;100279.00;;;;2221413;26;20288;-58
2024/04/20 00:20:48;;;;;;;1.97;0.40;;;;;17.80;100280.00;;;;2226169;26;20677;-57
2024/04/20 00:21:48;;;;;;;3.30;0.70;;;;;17.80;100280.00;;;;2217939;26;20265;-57
2024/04/20 00:22:49;;;;;;;1.87;0.63;;;;;17.80;100285.00;;;;2219700;26;20330;-58
2024/04/20 00:23:50;;;;;;;1.70;0.60;;;;;17.80;100281.00;;;;2226407;26;20364;-57
2024/04/20 00:24:50;;;;;;;1.70;0.40;;;;;17.80;100278.00;;;;2222994;26;21932;-57
2024/04/20 00:25:50;;;;;;;2.17;0.73;;;;;17.80;100288.00;;;;2221441;26;20601;-58
2024/04/20 00:26:51;;;;;;;2.77;0.93;;;;;17.80;100277.00;;;;2208215;26;20288;-58
2024/04/20 00:27:51;;;;;;;1.67;0.50;;;;;17.80;100282.00;;;;2219600;26;20265;-58
2024/04/20 00:28:52;;;;;;;1.40;0.60;;;;;17.80;100284.00;;;;2221558;26;20251;-58
2024/04/20 00:29:53;;;;;;;1.47;0.50;;;;;17.80;100283.00;;;;2221080;26;20728;-58
2024/04/20 00:30:57;;;;;;;1.65;0.60;;;;;17.80;100284.00;;;;2216621;26;20261;-57
2024/04/20 00:31:58;;;;;;;1.70;0.60;;;;;17.80;100288.00;;;;2223866;26;20319;-58
2024/04/20 00:32:58;;;;;;;2.43;0.50;;;;;17.80;100287.00;;;;2242491;26;20400;-58
2024/04/20 00:33:59;;;;;;;1.60;0.50;;;;;17.80;100289.00;;;;2236700;26;20287;-57
2024/04/20 00:35:00;;;;;;;2.20;0.93;;;;;17.80;100319.00;;;;2226489;26;22522;-58
2024/04/20 00:36:00;;;;;;;1.57;0.50;;;;;17.80;100289.00;;;;2225165;26;20717;-57
2024/04/20 00:37:01;;;;;;;1.60;0.50;;;;;17.80;100288.00;;;;2216321;26;20486;-57
2024/04/20 00:38:01;;;;;;;2.43;0.70;;;;;17.80;100284.00;;;;2222014;26;20248;-57
2024/04/20 00:39:01;;;;;;;1.70;0.60;;;;;17.80;100289.00;;;;2217950;26;20240;-57
2024/04/20 00:40:02;;;;;;;2.50;0.53;;;;;17.80;100289.00;;;;2225065;26;20948;-57
2024/04/20 00:41:02;;;;;;;2.93;0.47;;;;;17.80;100288.00;;;;2225556;26;20260;-57
2024/04/20 00:42:03;;;;;;;2.00;0.60;;;;;17.80;100292.00;;;;2209218;26;20264;-57
2024/04/20 00:43:04;;;;;;;1.75;0.65;;;;;17.80;100308.00;;;;2209645;26;20266;-57
2024/04/20 00:44:04;;;;;;;1.87;0.57;;;;;17.80;100293.00;;;;2208455;26;20262;-57
2024/04/20 00:45:05;;;;;;;1.70;0.70;;;;;17.80;100290.00;;;;2221861;26;21000;-61
2024/04/20 00:46:05;;;;;;;1.90;0.60;;;;;17.80;100298.00;;;;2220998;26;20312;-59
2024/04/20 00:47:06;;;;;;;2.00;0.80;;;;;17.80;100297.00;;;;2210604;26;20250;-58
2024/04/20 00:48:06;;;;;;;1.80;0.50;;;;;17.80;100304.00;;;;2218419;26;20365;-58
2024/04/20 00:49:07;;;;;;;1.90;0.53;;;;;17.80;100302.00;;;;2221362;26;20302;-57
2024/04/20 00:50:07;;;;;;;1.83;0.70;;;;;17.80;100307.00;;;;2225105;26;20265;-57
2024/04/20 00:51:08;;;;;;;2.03;0.50;;;;;17.80;100305.00;;;;2224989;26;20484;-58
2024/04/20 00:52:09;;;;;;;2.03;0.63;;;;;17.80;100306.00;;;;2200647;26;20267;-57
2024/04/20 00:53:10;;;;;;;7.05;0.80;;;;;17.80;100298.00;;;;2215031;26;20258;-58
2024/04/20 00:54:11;;;;;;;2.72;0.70;;;;;17.80;100307.00;;;;2229585;26;20270;-57
2024/04/20 00:55:11;;;;;;;1.77;0.60;;;;;17.80;100298.00;;;;2218486;26;20778;-57
2024/04/20 00:56:12;;;;;;;1.63;0.60;;;;;17.80;100300.00;;;;2199745;26;20266;-57
2024/04/20 00:57:12;;;;;;;1.87;0.60;;;;;17.80;100307.00;;;;2185915;26;20260;-58
2024/04/20 00:58:14;;;;;;;1.30;0.40;;;;;17.80;100343.00;;;;2216563;26;20261;-58
2024/04/20 00:59:14;;;;;;;1.70;0.60;;;;;17.80;100310.00;;;;2217665;26;20309;-57
2024/04/20 01:00:14;;;;;;;2.07;0.60;;;;;17.80;100309.00;;;;2198103;26;20263;-57
2024/04/20 01:01:15;;;;;;;2.07;0.60;;;;;17.80;100316.00;;;;2191712;26;20687;-58
2024/04/20 01:02:16;;;;;;;1.53;0.50;;;;;17.80;100311.00;;;;2199268;26;20310;-57
2024/04/20 01:03:16;;;;;;;1.70;0.50;;;;;17.80;100317.00;;;;2229027;26;20391;-57
2024/04/20 01:04:16;;;;;;;1.50;0.47;;;;;17.80;100313.00;;;;2222259;26;20254;-57
2024/04/20 01:05:18;;;;;;;1.80;0.67;;;;;17.80;100318.00;;;;2217366;26;20289;-58
2024/04/20 01:06:18;;;;;;;2.20;0.50;;;;;17.80;100320.00;;;;2228801;26;20297;-57
2024/04/20 01:07:19;;;;;;;2.43;0.80;;;;;17.80;100320.00;;;;2211329;26;20293;-58
2024/04/20 01:08:19;;;;;;;1.70;0.50;;;;;17.80;100312.00;;;;2221373;26;20304;-57
2024/04/20 01:09:19;;;;;;;1.47;0.50;;;;;17.80;100320.00;;;;2217540;26;20332;-57
2024/04/20 01:10:20;;;;;;;1.77;0.60;;;;;17.80;100316.00;;;;2224482;26;20302;-57
2024/04/20 01:11:20;;;;;;;2.23;0.70;;;;;17.80;100322.00;;;;2217012;26;20299;-57
2024/04/20 01:12:20;;;;;;;2.63;0.70;;;;;17.80;100318.00;;;;2214307;26;20259;-57
2024/04/20 01:13:26;;;;;;;2.10;0.70;;;;;17.80;100322.00;;;;2229487;26;20252;-57
2024/04/20 01:14:26;;;;;;;1.85;0.60;;;;;17.80;100326.00;;;;2215752;26;20258;-57
2024/04/20 01:15:27;;;;;;;1.80;0.50;;;;;17.80;100317.00;;;;2214674;26;20406;-57
2024/04/20 01:16:27;;;;;;;1.90;0.60;;;;;17.80;100323.00;;;;2221135;26;20593;-57
2024/04/20 01:17:27;;;;;;;1.67;0.50;;;;;17.80;100326.00;;;;2235532;26;20264;-58
2024/04/20 01:18:28;;;;;;;1.43;0.50;;;;;17.80;100319.00;;;;2222802;26;20432;-58
2024/04/20 01:19:28;;;;;;;1.70;0.60;;;;;17.80;100326.00;;;;2219394;26;20265;-57
2024/04/20 01:20:29;;;;;;;2.00;0.60;;;;;17.80;100335.00;;;;2218336;26;20241;-58
2024/04/20 01:21:29;;;;;;;2.85;0.85;;;;;17.80;100336.00;;;;2205798;26;20266;-58
2024/04/20 01:22:30;;;;;;;3.73;0.70;;;;;17.80;100333.00;;;;2216786;26;20249;-56
2024/04/20 01:23:30;;;;;;;3.10;0.70;;;;;17.80;100334.00;;;;2216991;26;20251;-58
2024/04/20 01:24:31;;;;;;;4.17;0.50;;;;;17.80;100334.00;;;;2213038;26;20376;-58
2024/04/20 01:25:31;;;;;;;1.70;0.50;;;;;17.40;100341.00;;;;2201215;26;20286;-57
2024/04/20 01:26:32;;;;;;;2.23;0.60;;;;;17.80;100336.00;;;;2187489;26;20255;-57
2024/04/20 01:27:33;;;;;;;2.30;0.60;;;;;17.70;100338.00;;;;2204425;26;21028;-58
2024/04/20 01:28:34;;;;;;;2.67;0.60;;;;;17.70;100339.00;;;;2226574;26;20829;-57
2024/04/20 01:29:34;;;;;;;1.60;0.53;;;;;17.80;100348.00;;;;2217314;26;20261;-57
2024/04/20 01:30:34;;;;;;;2.17;0.60;;;;;17.70;100339.00;;;;2217968;26;20293;-57
2024/04/20 01:31:35;;;;;;;3.00;0.57;;;;;17.70;100344.00;;;;2207358;26;20355;-57
2024/04/20 01:32:35;;;;;;;1.40;0.40;;;;;17.70;100349.00;;;;2217645;26;20252;-57
2024/04/20 01:33:36;;;;;;;1.40;0.50;;;;;17.70;100344.00;;;;2228116;26;20251;-57
2024/04/20 01:34:36;;;;;;;1.67;0.43;;;;;17.70;100348.00;;;;2218270;26;20253;-58
2024/04/20 01:35:40;;;;;;;1.80;0.60;;;;;17.80;100353.00;;;;2217270;26;20292;-58
2024/04/20 01:36:41;;;;;;;1.80;0.50;;;;;17.80;100348.00;;;;2211586;26;20369;-58
2024/04/20 01:37:41;;;;;;;1.60;0.50;;;;;17.80;100355.00;;;;2219110;26;20370;-58
2024/04/20 01:38:41;;;;;;;1.63;0.60;;;;;17.70;100352.00;;;;2219234;26;20953;-58
2024/04/20 01:39:42;;;;;;;1.83;0.60;;;;;17.70;100353.00;;;;2225742;26;20266;-57
2024/04/20 01:40:42;;;;;;;1.70;0.60;;;;;17.70;100364.00;;;;2217947;26;20302;-57
2024/04/20 01:41:43;;;;;;;2.00;0.60;;;;;17.70;100357.00;;;;2210018;26;21301;-57
2024/04/20 01:42:43;;;;;;;2.23;0.53;;;;;17.70;100359.00;;;;2230628;26;20991;-57
2024/04/20 01:43:43;;;;;;;1.50;0.53;;;;;17.80;100362.00;;;;2216096;26;20362;-57
2024/04/20 01:44:44;;;;;;;2.20;0.67;;;;;17.70;100370.00;;;;2218267;26;20335;-57
2024/04/20 01:45:44;;;;;;;1.70;0.50;;;;;17.70;100365.00;;;;2219070;26;20254;-57
2024/04/20 01:46:45;;;;;;;2.23;0.80;;;;;17.70;100358.00;;;;2209448;26;20478;-57
2024/04/20 01:47:45;;;;;;;1.83;0.50;;;;;17.80;100361.00;;;;2211717;26;20254;-57
2024/04/20 01:48:45;;;;;;;1.40;0.40;;;;;17.80;100362.00;;;;2231520;26;20363;-57
2024/04/20 01:49:46;;;;;;;1.70;0.60;;;;;17.80;100363.00;;;;2217697;26;20296;-57
2024/04/20 01:50:46;;;;;;;2.00;0.60;;;;;17.70;100368.00;;;;2229268;26;20257;-57
2024/04/20 01:51:46;;;;;;;1.77;0.43;;;;;17.70;100356.00;;;;2210536;26;20304;-57
2024/04/20 01:52:47;;;;;;;1.90;0.60;;;;;17.70;100358.00;;;;2227114;26;20257;-57
2024/04/20 01:53:47;;;;;;;2.43;0.70;;;;;17.70;100363.00;;;;2221929;26;20292;-57
2024/04/20 01:54:47;;;;;;;1.50;0.40;;;;;17.70;100366.00;;;;2221008;26;20297;-57
2024/04/20 01:55:48;;;;;;;2.13;0.63;;;;;17.70;100369.00;;;;2221810;26;20269;-57
2024/04/20 01:56:48;;;;;;;1.50;0.50;;;;;17.70;100380.00;;;;2209643;26;20366;-57
2024/04/20 01:57:48;;;;;;;1.87;0.63;;;;;17.70;100371.00;;;;2221033;26;20258;-57
2024/04/20 01:58:49;;;;;;;2.30;0.80;;;;;17.70;100371.00;;;;2220175;26;20297;-57
2024/04/20 01:59:49;;;;;;;2.00;0.60;;;;;17.70;100371.00;;;;2219112;26;20351;-57
2024/04/20 02:00:49;;;;;;;2.20;0.63;;;;;17.70;100373.00;;;;2218235;26;20259;-57
2024/04/20 02:01:53;;;;;;;1.80;0.50;;;;;17.70;100381.00;;;;2206620;26;20301;-57
2024/04/20 02:02:53;;;;;;;1.50;0.50;;;;;17.70;100372.00;;;;2221084;26;20593;-57
2024/04/20 02:03:53;;;;;;;2.00;0.60;;;;;17.70;100381.00;;;;2228016;26;20260;-57
2024/04/20 02:04:54;;;;;;;3.10;0.70;;;;;17.70;100381.00;;;;2218551;26;20399;-57
2024/04/20 02:05:54;;;;;;;1.53;0.50;;;;;17.70;100381.00;;;;2219127;26;20349;-57
2024/04/20 02:06:57;;;;;;;1.90;0.50;;;;;17.70;100384.00;;;;2208469;26;20257;-57
2024/04/20 02:07:57;;;;;;;1.88;0.63;;;;;17.70;100387.00;;;;2217551;26;20258;-57
2024/04/20 02:08:58;;;;;;;1.83;0.60;;;;;17.70;100390.00;;;;2225800;26;20740;-57
2024/04/20 02:09:59;;;;;;;2.00;0.67;;;;;17.70;100385.00;;;;2228916;26;20901;-57
2024/04/20 02:11:00;;;;;;;2.42;0.60;;;;;17.70;100393.00;;;;2217743;26;20715;-57
2024/04/20 02:12:00;;;;;;;2.00;0.60;;;;;17.70;100395.00;;;;2208254;26;20294;-57
2024/04/20 02:13:01;;;;;;;1.80;0.60;;;;;17.70;100392.00;;;;2221324;26;20248;-57
2024/04/20 02:14:02;;;;;;;1.67;0.63;;;;;17.70;100384.00;;;;2214825;26;20310;-57
2024/04/20 02:15:02;;;;;;;1.87;0.77;;;;;17.70;100389.00;;;;2217762;26;20266;-57
2024/04/20 02:16:03;;;;;;;1.50;0.43;;;;;17.70;100396.00;;;;2222159;26;20470;-57
2024/04/20 02:17:03;;;;;;;1.80;0.60;;;;;17.70;100393.00;;;;2216231;26;20291;-57
2024/04/20 02:18:04;;;;;;;2.27;0.57;;;;;17.70;100397.00;;;;2224647;26;21775;-57
2024/04/20 02:19:04;;;;;;;2.67;0.70;;;;;17.70;100391.00;;;;2219467;26;20252;-57
2024/04/20 02:20:05;;;;;;;1.70;0.60;;;;;17.70;100389.00;;;;2219327;26;20258;-57
2024/04/20 02:21:05;;;;;;;1.85;0.50;;;;;17.70;100395.00;;;;2224809;26;20303;-57
2024/04/20 02:22:06;;;;;;;1.70;0.60;;;;;17.70;100395.00;;;;2219782;26;20764;-57
2024/04/20 02:23:06;;;;;;;2.40;0.63;;;;;17.70;100396.00;;;;2227306;26;20703;-57
2024/04/20 02:24:07;;;;;;;1.70;0.67;;;;;17.70;100390.00;;;;2221301;26;20509;-57
2024/04/20 02:25:07;;;;;;;1.70;0.53;;;;;17.70;100395.00;;;;2233702;26;20244;-57
2024/04/20 02:26:08;;;;;;;1.57;0.57;;;;;17.70;100221.00;;;;2227519;26;20250;-57
2024/04/20 02:27:08;;;;;;;1.60;0.50;;;;;17.70;100399.00;;;;2220092;26;20261;-57
2024/04/20 02:28:08;;;;;;;1.80;0.63;;;;;17.70;100384.00;;;;2227199;26;20254;-57
2024/04/20 02:29:09;;;;;;;2.10;0.70;;;;;17.70;100394.00;;;;2226174;26;20370;-57
2024/04/20 02:30:09;;;;;;;1.60;0.50;;;;;17.70;100397.00;;;;2230298;26;20281;-57
2024/04/20 02:31:09;;;;;;;2.33;0.53;;;;;17.70;100400.00;;;;2226687;26;20251;-57
2024/04/20 02:32:10;;;;;;;2.00;0.63;;;;;17.70;100395.00;;;;2225893;26;20348;-57
2024/04/20 02:33:10;;;;;;;1.60;0.50;;;;;17.70;100397.00;;;;2240871;26;20241;-57
2024/04/20 02:34:10;;;;;;;1.83;0.50;;;;;17.70;100394.00;;;;2221281;26;20261;-57
2024/04/20 02:35:11;;;;;;;1.93;0.57;;;;;17.70;100397.00;;;;2225010;26;20299;-57
2024/04/20 02:36:11;;;;;;;2.30;0.57;;;;;17.70;100398.00;;;;2226949;26;20263;-57
2024/04/20 02:37:11;;;;;;;2.27;0.60;;;;;17.70;100399.00;;;;2216239;26;20303;-57
2024/04/20 02:38:12;;;;;;;2.10;0.80;;;;;17.70;100401.00;;;;2226814;26;20584;-57
2024/04/20 02:39:12;;;;;;;1.60;0.53;;;;;17.70;100392.00;;;;2220160;26;20254;-58
2024/04/20 02:40:14;;;;;;;1.60;0.50;;;;;17.70;100411.00;;;;2230657;26;20589;-57
2024/04/20 02:41:14;;;;;;;1.80;0.60;;;;;17.70;100408.00;;;;2226811;26;20263;-57
2024/04/20 02:42:14;;;;;;;1.73;0.50;;;;;17.70;100406.00;;;;2216085;26;20269;-57
2024/04/20 02:43:15;;;;;;;2.10;0.60;;;;;17.70;100400.00;;;;2226002;26;20258;-58
2024/04/20 02:44:15;;;;;;;1.60;0.50;;;;;17.70;100413.00;;;;2223591;26;20258;-57
2024/04/20 02:45:15;;;;;;;2.00;0.77;;;;;17.70;100402.00;;;;2226488;26;20723;-57
2024/04/20 02:46:16;;;;;;;1.30;0.47;;;;;17.70;100404.00;;;;2223756;26;20254;-58
2024/04/20 02:47:16;;;;;;;3.67;0.40;;;;;17.70;100405.00;;;;2207786;26;20922;-58
2024/04/20 02:48:16;;;;;;;1.93;0.67;;;;;17.70;100405.00;;;;2224655;26;20813;-59
2024/04/20 02:49:17;;;;;;;2.73;0.60;;;;;17.70;100406.00;;;;2231258;26;20277;-59
2024/04/20 02:50:17;;;;;;;1.57;0.50;;;;;17.70;100415.00;;;;2219768;26;20253;-58
2024/04/20 02:51:17;;;;;;;1.70;0.50;;;;;17.70;100409.00;;;;2215481;26;20253;-58
2024/04/20 02:52:18;;;;;;;1.73;0.60;;;;;17.70;100417.00;;;;2213815;26;20256;-59
2024/04/20 02:53:18;;;;;;;1.73;0.63;;;;;17.70;100410.00;;;;2226076;26;20997;-57
2024/04/20 02:54:18;;;;;;;2.37;0.60;;;;;17.70;100413.00;;;;2225067;26;20254;-57
2024/04/20 02:55:19;;;;;;;2.67;0.73;;;;;17.70;100412.00;;;;2228767;26;20276;-59
2024/04/20 02:56:19;;;;;;;1.87;0.70;;;;;17.70;100418.00;;;;2223990;26;20307;-58
2024/04/20 02:57:19;;;;;;;1.40;0.50;;;;;17.70;100415.00;;;;2228811;26;20263;-58
2024/04/20 02:58:20;;;;;;;2.00;0.67;;;;;17.70;100417.00;;;;2246153;26;20256;-58
2024/04/20 02:59:20;;;;;;;1.67;0.60;;;;;17.70;100423.00;;;;2229701;26;20291;-59
2024/04/20 03:00:20;;;;;;;1.50;0.50;;;;;17.70;100422.00;;;;2230218;26;20256;-59
2024/04/20 03:01:21;;;;;;;1.60;0.67;;;;;17.70;100419.00;;;;2224621;26;20255;-58
2024/04/20 03:02:21;;;;;;;2.20;0.60;;;;;17.70;100419.00;;;;2209979;26;21018;-59
2024/04/20 03:03:21;;;;;;;2.53;0.80;;;;;17.70;100421.00;;;;2218862;26;20258;-58
2024/04/20 03:04:22;;;;;;;1.63;0.57;;;;;17.70;100424.00;;;;2224749;26;20258;-58
2024/04/20 03:05:22;;;;;;;2.47;0.70;;;;;17.70;100422.00;;;;2217456;26;20258;-61
2024/04/20 03:06:23;;;;;;;2.50;0.60;;;;;17.70;100426.00;;;;2210946;26;20301;-58
2024/04/20 03:07:25;;;;;;;1.80;0.63;;;;;17.70;100425.00;;;;2223056;26;20548;-58
2024/04/20 03:08:25;;;;;;;3.10;0.63;;;;;17.70;100425.00;;;;2222833;26;20246;-57
2024/04/20 03:09:27;;;;;;;2.33;0.60;;;;;17.70;100425.00;;;;2226748;26;20300;-57
2024/04/20 03:10:27;;;;;;;1.90;0.70;;;;;17.70;100431.00;;;;2223572;26;20273;-57
2024/04/20 03:11:27;;;;;;;2.10;0.80;;;;;17.70;100435.00;;;;2208670;26;20269;-57
2024/04/20 03:12:28;;;;;;;2.60;0.80;;;;;17.70;100485.00;;;;2216817;26;20386;-57
2024/04/20 03:13:29;;;;;;;1.60;0.50;;;;;17.70;100437.00;;;;2216854;26;20247;-57
2024/04/20 03:14:29;;;;;;;2.37;0.70;;;;;17.70;100435.00;;;;2217683;26;20259;-57
2024/04/20 03:15:30;;;;;;;2.13;0.63;;;;;17.70;100436.00;;;;2218243;26;20261;-57
2024/04/20 03:16:30;;;;;;;1.70;0.60;;;;;17.70;100453.00;;;;2216050;26;20304;-58
2024/04/20 03:17:30;;;;;;;2.00;0.93;;;;;17.70;100446.00;;;;2218419;26;20807;-57
2024/04/20 03:18:32;;;;;;;1.67;0.60;;;;;17.70;100434.00;;;;2218749;26;20701;-57
2024/04/20 03:19:33;;;;;;;2.60;0.60;;;;;17.70;100432.00;;;;2217715;26;20248;-57
2024/04/20 03:20:33;;;;;;;2.40;0.70;;;;;17.70;100441.00;;;;2226836;26;20322;-57
2024/04/20 03:21:33;;;;;;;2.27;0.53;;;;;17.70;100442.00;;;;2211279;26;20261;-57
2024/04/20 03:22:34;;;;;;;2.03;0.53;;;;;17.70;100445.00;;;;2229784;26;20301;-57
2024/04/20 03:23:34;;;;;;;1.50;0.60;;;;;17.70;100443.00;;;;2228227;26;20258;-58
2024/04/20 03:24:35;;;;;;;1.57;0.53;;;;;17.70;100438.00;;;;2218474;26;20291;-57
2024/04/20 03:25:35;;;;;;;2.07;0.70;;;;;17.60;100443.00;;;;2218614;26;20243;-57
2024/04/20 03:26:35;;;;;;;2.70;0.80;;;;;17.70;100444.00;;;;2213944;26;20258;-57
2024/04/20 03:27:35;;;;;;;1.70;0.60;;;;;17.70;100450.00;;;;2221850;26;20254;-57
2024/04/20 03:28:36;;;;;;;2.20;0.67;;;;;17.70;100443.00;;;;2218012;26;20250;-58
2024/04/20 03:29:36;;;;;;;1.60;0.60;;;;;17.70;100447.00;;;;2227752;26;20333;-57
2024/04/20 03:30:36;;;;;;;1.47;0.50;;;;;17.70;100455.00;;;;2231231;26;20256;-57
2024/04/20 03:31:37;;;;;;;1.80;0.70;;;;;17.70;100448.00;;;;2218500;26;20245;-57
2024/04/20 03:32:37;;;;;;;2.10;0.60;;;;;17.70;100450.00;;;;2220386;26;20575;-57
2024/04/20 03:33:38;;;;;;;1.40;0.50;;;;;17.70;100455.00;;;;2222759;26;20258;-57
2024/04/20 03:34:38;;;;;;;2.40;0.70;;;;;17.70;100455.00;;;;2230429;26;20316;-57
2024/04/20 03:35:38;;;;;;;1.90;0.70;;;;;17.70;100457.00;;;;2219934;26;20284;-58
2024/04/20 03:36:39;;;;;;;3.20;0.70;;;;;17.70;100457.00;;;;2211547;26;20254;-57
2024/04/20 03:37:40;;;;;;;1.67;0.60;;;;;17.70;100457.00;;;;2218935;26;20270;-57
2024/04/20 03:38:45;;;;;;;1.80;0.50;;;;;17.70;100466.00;;;;2228439;26;20668;-58
2024/04/20 03:39:45;;;;;;;2.58;0.75;;;;;17.70;100459.00;;;;2219659;26;20372;-57
2024/04/20 03:40:46;;;;;;;1.70;0.60;;;;;17.70;100460.00;;;;2221466;26;20265;-58
2024/04/20 03:41:46;;;;;;;2.27;0.70;;;;;17.70;100455.00;;;;2205713;26;20273;-57
2024/04/20 03:42:46;;;;;;;1.47;0.50;;;;;17.70;100462.00;;;;2220744;26;21278;-57
2024/04/20 03:43:47;;;;;;;1.60;0.60;;;;;17.70;100465.00;;;;2218396;26;20247;-57
2024/04/20 03:44:47;;;;;;;1.70;0.40;;;;;17.70;100472.00;;;;2217004;26;20643;-57
2024/04/20 03:45:51;;;;;;;3.37;0.63;;;;;17.70;100475.00;;;;2227961;26;21102;-57
2024/04/20 03:46:53;;;;;;;1.83;0.70;;;;;17.70;100489.00;;;;2221673;26;20867;-57
2024/04/20 03:47:54;;;;;;;2.65;0.80;;;;;17.70;100355.00;;;;2224695;26;20293;-57
2024/04/20 03:48:54;;;;;;;6.00;0.80;;;;;17.70;100358.00;;;;2219538;26;20587;-57
2024/04/20 03:49:54;;;;;;;1.80;0.70;;;;;17.70;100480.00;;;;2222435;26;20610;-57
2024/04/20 03:50:55;;;;;;;2.63;0.60;;;;;17.70;100480.00;;;;2227360;26;20586;-57
2024/04/20 03:51:56;;;;;;;1.60;0.50;;;;;17.70;100477.00;;;;2207242;26;20612;-57
2024/04/20 03:52:56;;;;;;;2.73;0.60;;;;;17.70;100478.00;;;;2220037;26;20509;-58
2024/04/20 03:53:56;;;;;;;3.30;0.77;;;;;17.70;100485.00;;;;2216377;26;20260;-60
2024/04/20 03:54:56;;;;;;;3.07;0.60;;;;;17.70;100484.00;;;;2222448;26;20353;-57
2024/04/20 03:55:57;;;;;;;1.50;0.50;;;;;17.70;100475.00;;;;2228789;26;20264;-56
2024/04/20 03:56:57;;;;;;;2.27;0.60;;;;;17.70;100480.00;;;;2207270;26;20258;-58
2024/04/20 03:57:59;;;;;;;1.60;0.63;;;;;17.70;100479.00;;;;2227571;26;20304;-57
2024/04/20 03:58:59;;;;;;;1.67;0.60;;;;;17.70;100478.00;;;;2219645;26;20250;-57
2024/04/20 03:59:59;;;;;;;2.73;0.60;;;;;17.70;100479.00;;;;2221714;26;20335;-57
2024/04/20 04:00:59;;;;;;;1.40;0.40;;;;;17.70;100490.00;;;;2217845;26;20261;-56
2024/04/20 04:02:00;;;;;;;1.70;0.50;;;;;17.60;100481.00;;;;2209739;26;20424;-57
2024/04/20 04:03:00;;;;;;;1.90;0.50;;;;;17.60;100489.00;;;;2222157;26;20310;-56
2024/04/20 04:04:00;;;;;;;2.90;1.00;;;;;17.70;100480.00;;;;2230154;26;20261;-57
2024/04/20 04:05:01;;;;;;;1.87;0.60;;;;;17.70;100490.00;;;;2220153;26;20293;-57
2024/04/20 04:06:01;;;;;;;2.50;0.70;;;;;17.70;100491.00;;;;2220713;26;20295;-57
2024/04/20 04:07:02;;;;;;;2.40;0.70;;;;;17.70;100477.00;;;;2213980;26;20348;-57
2024/04/20 04:08:03;;;;;;;1.77;0.67;;;;;17.70;100487.00;;;;2230403;26;20324;-57
2024/04/20 04:09:03;;;;;;;1.60;0.50;;;;;17.60;100495.00;;;;2222546;26;20299;-57
2024/04/20 04:10:04;;;;;;;2.00;0.90;;;;;17.70;100495.00;;;;2228245;26;20482;-56
2024/04/20 04:11:04;;;;;;;1.60;0.50;;;;;17.70;100489.00;;;;2218469;26;20250;-57
2024/04/20 04:12:05;;;;;;;1.87;0.70;;;;;17.70;100487.00;;;;2214832;26;20257;-57
2024/04/20 04:13:05;;;;;;;2.13;0.50;;;;;17.60;100492.00;;;;2218614;26;20262;-56
2024/04/20 04:14:05;;;;;;;1.90;0.70;;;;;17.60;100505.00;;;;2217015;26;20786;-57
2024/04/20 04:15:06;;;;;;;1.43;0.40;;;;;17.70;100497.00;;;;2218067;26;20727;-57
2024/04/20 04:16:09;;;;;;;2.60;0.80;;;;;17.60;100495.00;;;;2219551;26;20731;-57
2024/04/20 04:17:09;;;;;;;2.17;0.50;;;;;17.60;100500.00;;;;2221207;26;20306;-57
2024/04/20 04:18:10;;;;;;;2.77;0.60;;;;;17.60;100501.00;;;;2229463;26;20275;-57
2024/04/20 04:19:10;;;;;;;1.80;0.70;;;;;17.70;100508.00;;;;2221789;26;20253;-57
2024/04/20 04:20:10;;;;;;;1.90;0.60;;;;;17.60;100502.00;;;;2229328;26;20667;-57
2024/04/20 04:21:11;;;;;;;2.00;0.60;;;;;17.60;100510.00;;;;2221735;26;20295;-57
2024/04/20 04:22:11;;;;;;;1.63;0.60;;;;;17.60;100510.00;;;;2217909;26;20252;-57
2024/04/20 04:23:12;;;;;;;2.00;0.70;;;;;17.70;100510.00;;;;2219509;26;20309;-57
2024/04/20 04:24:12;;;;;;;2.42;0.65;;;;;17.60;100501.00;;;;2221013;26;20304;-57
2024/04/20 04:25:13;;;;;;;2.37;0.63;;;;;17.60;100507.00;;;;2227662;26;20699;-57
2024/04/20 04:26:13;;;;;;;1.60;0.50;;;;;17.70;100507.00;;;;2228357;26;21022;-57
2024/04/20 04:27:15;;;;;;;1.40;0.50;;;;;17.70;100503.00;;;;2210874;26;20297;-57
2024/04/20 04:28:15;;;;;;;1.40;0.40;;;;;17.70;100514.00;;;;2218497;26;20397;-57
2024/04/20 04:29:16;;;;;;;1.70;0.60;;;;;17.60;100516.00;;;;2217375;26;20358;-56
2024/04/20 04:30:16;;;;;;;2.33;0.60;;;;;17.60;100515.00;;;;2221116;26;20254;-57
2024/04/20 04:31:16;;;;;;;1.70;0.50;;;;;17.70;100509.00;;;;2232582;26;20309;-57
2024/04/20 04:32:17;;;;;;;1.50;0.50;;;;;17.60;100511.00;;;;2210392;26;20828;-57
2024/04/20 04:33:17;;;;;;;1.50;0.50;;;;;17.60;100522.00;;;;2224061;26;20260;-58
2024/04/20 04:34:17;;;;;;;1.60;0.60;;;;;17.60;100521.00;;;;2231321;26;20253;-57
2024/04/20 04:35:18;;;;;;;2.00;0.60;;;;;17.60;100525.00;;;;2225839;26;20259;-56
2024/04/20 04:36:18;;;;;;;1.70;0.50;;;;;17.70;100524.00;;;;2221429;26;20298;-57
2024/04/20 04:37:19;;;;;;;1.60;0.47;;;;;17.60;100515.00;;;;2211999;26;20276;-57
2024/04/20 04:38:19;;;;;;;1.30;0.40;;;;;17.70;100527.00;;;;2223730;26;20262;-57
2024/04/20 04:39:19;;;;;;;1.90;0.60;;;;;17.60;100521.00;;;;2225093;26;20266;-57
2024/04/20 04:40:20;;;;;;;1.77;0.57;;;;;17.60;100528.00;;;;2228206;26;20573;-57
2024/04/20 04:41:20;;;;;;;1.73;0.70;;;;;17.70;100526.00;;;;2227871;26;20599;-56
2024/04/20 04:42:20;;;;;;;6.03;0.87;;;;;17.60;100532.00;;;;2211416;26;20257;-57
2024/04/20 04:43:21;;;;;;;1.90;0.60;;;;;17.70;100527.00;;;;2225645;26;20315;-56
2024/04/20 04:44:21;;;;;;;1.50;0.50;;;;;17.60;100533.00;;;;2224743;26;20249;-57
2024/04/20 04:45:21;;;;;;;1.60;0.60;;;;;17.70;100537.00;;;;2219335;26;20291;-58
2024/04/20 04:46:22;;;;;;;1.90;0.57;;;;;17.60;100533.00;;;;2220635;26;20248;-59
2024/04/20 04:47:22;;;;;;;2.13;0.60;;;;;17.60;100534.00;;;;2225558;26;20245;-57
2024/04/20 04:48:22;;;;;;;1.47;0.50;;;;;17.60;100535.00;;;;2220636;26;20250;-57
2024/04/20 04:49:23;;;;;;;1.43;0.53;;;;;17.60;100534.00;;;;2222054;26;20369;-57
2024/04/20 04:50:23;;;;;;;1.30;0.40;;;;;17.60;100538.00;;;;2218145;26;20266;-57
2024/04/20 04:51:23;;;;;;;2.47;0.50;;;;;17.70;100535.00;;;;2210840;26;20253;-58
2024/04/20 04:52:24;;;;;;;1.60;0.50;;;;;17.60;100551.00;;;;2220429;26;20251;-57
2024/04/20 04:53:24;;;;;;;1.70;0.60;;;;;17.60;100543.00;;;;2224865;26;20310;-57
2024/04/20 04:54:25;;;;;;;1.83;0.53;;;;;17.60;100549.00;;;;2229379;26;20249;-57
2024/04/20 04:55:26;;;;;;;1.42;0.55;;;;;17.60;100546.00;;;;2220742;26;20351;-57
2024/04/20 04:56:27;;;;;;;1.70;0.60;;;;;17.70;100552.00;;;;2208131;26;20262;-57
2024/04/20 04:57:27;;;;;;;2.10;0.60;;;;;17.60;100556.00;;;;2220045;26;20476;-57
2024/04/20 04:58:27;;;;;;;1.87;0.53;;;;;17.70;100556.00;;;;2225259;26;20626;-57
2024/04/20 04:59:28;;;;;;;2.10;0.57;;;;;17.60;100555.00;;;;2223861;26;21137;-57